createdAt,value
2022-10-14T00:00:48.252Z,82.43
2022-10-14T00:01:49.839Z,82.46
2022-10-14T00:02:51.452Z,82.26
2022-10-14T00:03:54.688Z,82.40
2022-10-14T00:04:56.459Z,82.03
2022-10-14T00:05:58.320Z,82.27
2022-10-14T00:06:59.751Z,82.31
2022-10-14T00:08:01.471Z,82.66
2022-10-14T00:09:06.418Z,82.44
2022-10-14T00:10:08.136Z,82.29
2022-10-14T00:11:13.631Z,82.94
2022-10-14T00:12:15.166Z,82.18
2022-10-14T00:13:17.384Z,82.11
2022-10-14T00:14:20.297Z,82.36
2022-10-14T00:15:21.623Z,82.32
2022-10-14T00:16:30.012Z,82.75
2022-10-14T00:17:31.506Z,82.61
2022-10-14T00:18:33.075Z,82.59
2022-10-14T00:19:34.544Z,82.40
2022-10-14T00:20:36.023Z,82.56
2022-10-14T00:21:39.204Z,82.68
2022-10-14T00:22:40.645Z,82.90
2022-10-14T00:23:42.566Z,82.84
2022-10-14T00:24:44.041Z,82.49
2022-10-14T00:25:46.243Z,83.13
2022-10-14T00:26:47.770Z,82.59
2022-10-14T00:27:49.190Z,83.01
2022-10-14T00:28:51.318Z,82.97
2022-10-14T00:29:52.951Z,82.48
2022-10-14T00:31:00.498Z,82.78
2022-10-14T00:32:01.964Z,82.65
2022-10-14T00:33:03.477Z,82.82
2022-10-14T00:34:05.122Z,83.04
2022-10-14T00:35:06.827Z,82.78
2022-10-14T00:36:11.194Z,82.73
2022-10-14T00:37:12.623Z,82.68
2022-10-14T00:38:14.086Z,82.83
2022-10-14T00:39:16.178Z,82.79
2022-10-14T00:40:17.761Z,82.56
2022-10-14T00:41:26.952Z,82.56
2022-10-14T00:42:28.439Z,82.79
2022-10-14T00:43:30.482Z,82.51
2022-10-14T00:44:31.891Z,82.32
2022-10-14T00:45:34.755Z,82.37
2022-10-14T00:46:45.489Z,82.71
2022-10-14T00:47:49.501Z,82.82
2022-10-14T00:48:51.623Z,82.85
2022-10-14T00:49:53.218Z,82.95
2022-10-14T00:50:57.659Z,82.85
2022-10-14T00:52:03.216Z,82.97
2022-10-14T00:53:04.739Z,83.09
2022-10-14T00:54:07.308Z,83.61
2022-10-14T00:55:15.311Z,83.52
2022-10-14T00:56:22.431Z,83.29
2022-10-14T00:57:25.816Z,83.83
2022-10-14T00:58:28.080Z,84.13
2022-10-14T00:59:30.381Z,84.47
2022-10-14T01:00:32.200Z,84.36
2022-10-14T01:01:34.488Z,84.71
2022-10-14T01:02:36.370Z,84.44
2022-10-14T01:03:37.889Z,84.72
2022-10-14T01:04:42.261Z,84.65
2022-10-14T01:05:58.840Z,84.53
2022-10-14T01:07:43.996Z,84.80
2022-10-14T01:08:53.970Z,85.03
2022-10-14T01:10:20.179Z,84.92
2022-10-14T01:11:40.967Z,85.02
2022-10-14T01:13:05.327Z,85.16
2022-10-14T01:14:21.272Z,85.04
2022-10-14T01:15:38.704Z,85.07
2022-10-14T01:16:53.798Z,85.35
2022-10-14T01:18:25.014Z,85.27
2022-10-14T01:19:41.428Z,85.09
2022-10-14T01:20:54.489Z,85.33
2022-10-14T01:22:25.620Z,85.10
2022-10-14T01:23:54.110Z,85.23
2022-10-14T01:25:24.869Z,85.17
2022-10-14T01:26:47.543Z,85.69
2022-10-14T01:28:06.829Z,85.51
2022-10-14T01:29:26.401Z,85.24
2022-10-14T01:30:34.086Z,85.45
2022-10-14T01:31:38.356Z,85.23
2022-10-14T01:33:04.484Z,85.57
2022-10-14T01:34:10.796Z,85.30
2022-10-14T01:35:23.444Z,85.50
2022-10-14T01:36:33.785Z,85.39
2022-10-14T01:37:39.663Z,85.44
2022-10-14T01:39:12.686Z,85.70
2022-10-14T01:40:21.903Z,85.74
2022-10-14T01:41:27.919Z,85.39
2022-10-14T01:42:35.168Z,85.64
2022-10-14T01:43:38.962Z,85.84
2022-10-14T01:44:54.076Z,85.73
2022-10-14T01:45:57.075Z,85.63
2022-10-14T01:47:00.540Z,85.71
2022-10-14T01:48:03.984Z,85.50
2022-10-14T01:49:11.142Z,85.56
2022-10-14T01:50:16.944Z,85.52
2022-10-14T01:51:24.979Z,85.55
2022-10-14T01:52:32.694Z,85.63
2022-10-14T01:53:43.678Z,85.54
2022-10-14T01:54:48.343Z,85.70
2022-10-14T01:55:52.999Z,85.68
2022-10-14T01:56:58.354Z,85.80
2022-10-14T01:58:01.132Z,86.02
2022-10-14T01:59:04.204Z,85.91
2022-10-14T02:00:06.540Z,85.77
2022-10-14T02:01:09.414Z,86.08
2022-10-14T02:02:13.295Z,86.15
2022-10-14T02:03:14.995Z,85.97
2022-10-14T02:04:21.221Z,85.63
2022-10-14T02:05:25.737Z,86.05
2022-10-14T02:06:32.292Z,85.67
2022-10-14T02:07:42.771Z,85.66
2022-10-14T02:08:52.703Z,85.77
2022-10-14T02:10:06.994Z,85.86
2022-10-14T02:11:15.869Z,85.94
2022-10-14T02:12:29.305Z,85.97
2022-10-14T02:13:45.420Z,85.63
2022-10-14T02:14:52.680Z,86.02
2022-10-14T02:16:15.741Z,86.32
2022-10-14T02:17:32.331Z,86.79
2022-10-14T02:19:01.873Z,86.43
2022-10-14T02:20:25.058Z,87.17
2022-10-14T02:21:40.130Z,86.90
2022-10-14T02:22:46.826Z,87.10
2022-10-14T02:23:57.454Z,86.99
2022-10-14T02:25:07.524Z,86.84
2022-10-14T02:26:09.951Z,86.82
2022-10-14T02:27:15.477Z,86.60
2022-10-14T02:28:21.934Z,86.57
2022-10-14T02:29:25.541Z,86.56
2022-10-14T02:30:30.842Z,86.55
2022-10-14T02:31:35.912Z,86.76
2022-10-14T02:32:40.247Z,87.13
2022-10-14T02:33:45.197Z,87.23
2022-10-14T02:34:50.845Z,86.70
2022-10-14T02:35:53.585Z,86.79
2022-10-14T02:36:56.387Z,86.83
2022-10-14T02:37:59.603Z,86.93
2022-10-14T02:39:02.743Z,87.67
2022-10-14T02:40:14.287Z,87.01
2022-10-14T02:41:19.906Z,87.21
2022-10-14T02:42:22.189Z,86.63
2022-10-14T02:43:23.866Z,86.32
2022-10-14T02:44:25.427Z,86.63
2022-10-14T02:45:27.298Z,86.69
2022-10-14T02:46:29.202Z,86.47
2022-10-14T02:47:30.665Z,86.03
2022-10-14T02:48:32.433Z,86.13
2022-10-14T02:49:33.919Z,85.88
2022-10-14T02:50:35.464Z,85.94
2022-10-14T02:51:36.959Z,85.84
2022-10-14T02:52:38.815Z,85.79
2022-10-14T02:53:40.286Z,86.16
2022-10-14T02:54:41.779Z,85.71
2022-10-14T02:55:43.516Z,85.77
2022-10-14T02:56:44.955Z,86.10
2022-10-14T02:57:46.797Z,85.94
2022-10-14T02:58:48.299Z,85.80
2022-10-14T02:59:49.815Z,85.69
2022-10-14T03:00:51.328Z,85.62
2022-10-14T03:01:52.766Z,85.68
2022-10-14T03:02:54.246Z,85.91
2022-10-14T03:03:55.667Z,85.83
2022-10-14T03:04:58.226Z,85.69
2022-10-14T03:05:59.689Z,85.84
2022-10-14T03:07:01.858Z,85.75
2022-10-14T03:08:03.384Z,85.52
2022-10-14T03:09:04.833Z,85.78
2022-10-14T03:10:06.470Z,86.33
2022-10-14T03:11:08.017Z,86.70
2022-10-14T03:12:09.789Z,86.81
2022-10-14T03:13:11.209Z,86.73
2022-10-14T03:14:12.776Z,86.16
2022-10-14T03:15:14.349Z,86.09
2022-10-14T03:16:15.802Z,86.07
2022-10-14T03:17:17.618Z,86.69
2022-10-14T03:18:19.327Z,86.72
2022-10-14T03:19:20.738Z,87.22
2022-10-14T03:20:22.201Z,86.96
2022-10-14T03:21:23.697Z,86.42
2022-10-14T03:22:26.152Z,86.54
2022-10-14T03:23:27.591Z,86.39
2022-10-14T03:24:29.023Z,86.09
2022-10-14T03:25:30.525Z,86.02
2022-10-14T03:26:32.402Z,85.90
2022-10-14T03:27:33.965Z,86.10
2022-10-14T03:28:35.460Z,86.15
2022-10-14T03:29:37.030Z,85.85
2022-10-14T03:30:38.839Z,85.75
2022-10-14T03:31:40.655Z,85.98
2022-10-14T03:32:42.077Z,86.01
2022-10-14T03:33:43.542Z,85.95
2022-10-14T03:34:45.011Z,85.78
2022-10-14T03:35:46.477Z,86.00
2022-10-14T03:36:48.297Z,86.05
2022-10-14T03:37:49.807Z,85.93
2022-10-14T03:38:51.288Z,85.65
2022-10-14T03:39:53.206Z,85.92
2022-10-14T03:40:54.870Z,85.71
2022-10-14T03:41:56.684Z,85.81
2022-10-14T03:43:01.372Z,85.17
2022-10-14T03:44:03.023Z,85.49
2022-10-14T03:45:04.959Z,85.64
2022-10-14T03:46:06.404Z,85.78
2022-10-14T03:47:08.178Z,85.69
2022-10-14T03:48:09.987Z,86.11
2022-10-14T03:49:12.314Z,85.56
2022-10-14T03:50:13.783Z,86.01
2022-10-14T03:51:15.976Z,85.41
2022-10-14T03:52:17.459Z,85.23
2022-10-14T03:53:19.181Z,85.59
2022-10-14T03:54:20.678Z,85.45
2022-10-14T03:55:22.154Z,85.25
2022-10-14T03:56:23.664Z,86.27
2022-10-14T03:57:25.167Z,86.54
2022-10-14T03:58:26.681Z,87.06
2022-10-14T03:59:28.127Z,87.22
2022-10-14T04:00:29.888Z,87.15
2022-10-14T04:01:31.773Z,87.30
2022-10-14T04:02:33.267Z,86.99
2022-10-14T04:03:34.771Z,86.69
2022-10-14T04:04:36.238Z,86.78
2022-10-14T04:05:37.687Z,86.91
2022-10-14T04:06:39.488Z,87.31
2022-10-14T04:07:40.911Z,87.56
2022-10-14T04:08:43.045Z,87.48
2022-10-14T04:09:44.489Z,87.15
2022-10-14T04:10:45.945Z,87.15
2022-10-14T04:11:47.790Z,86.85
2022-10-14T04:12:50.743Z,87.01
2022-10-14T04:13:52.103Z,87.33
2022-10-14T04:14:56.722Z,87.41
2022-10-14T04:16:03.471Z,86.83
2022-10-14T04:17:04.957Z,86.86
2022-10-14T04:18:06.437Z,86.66
2022-10-14T04:19:07.863Z,86.33
2022-10-14T04:20:10.058Z,86.33
2022-10-14T04:21:13.174Z,86.51
2022-10-14T04:22:14.705Z,86.26
2022-10-14T04:23:16.162Z,85.96
2022-10-14T04:24:17.620Z,86.49
2022-10-14T04:25:19.162Z,87.30
2022-10-14T04:26:20.921Z,86.74
2022-10-14T04:27:22.393Z,86.75
2022-10-14T04:28:24.265Z,86.58
2022-10-14T04:29:25.804Z,86.33
2022-10-14T04:30:27.324Z,86.46
2022-10-14T04:31:29.108Z,86.31
2022-10-14T04:32:30.582Z,86.29
2022-10-14T04:33:32.065Z,86.19
2022-10-14T04:34:33.656Z,86.11
2022-10-14T04:35:35.314Z,86.35
2022-10-14T04:36:38.664Z,86.12
2022-10-14T04:37:40.158Z,86.30
2022-10-14T04:38:41.604Z,86.24
2022-10-14T04:39:43.104Z,86.26
2022-10-14T04:40:45.526Z,86.43
2022-10-14T04:41:47.305Z,86.70
2022-10-14T04:42:48.808Z,86.42
2022-10-14T04:43:50.244Z,86.45
2022-10-14T04:44:51.694Z,86.11
2022-10-14T04:45:54.692Z,85.88
2022-10-14T04:46:56.167Z,85.49
2022-10-14T04:47:57.634Z,85.51
2022-10-14T04:48:59.112Z,85.95
2022-10-14T04:50:00.591Z,86.35
2022-10-14T04:51:02.087Z,86.35
2022-10-14T04:52:03.530Z,86.43
2022-10-14T04:53:04.974Z,85.79
2022-10-14T04:54:06.410Z,86.46
2022-10-14T04:55:08.252Z,86.95
2022-10-14T04:56:10.085Z,87.03
2022-10-14T04:57:11.837Z,86.78
2022-10-14T04:58:13.300Z,86.57
2022-10-14T04:59:14.955Z,86.52
2022-10-14T05:00:16.549Z,86.38
2022-10-14T05:01:19.048Z,86.68
2022-10-14T05:02:20.877Z,86.75
2022-10-14T05:03:22.698Z,86.69
2022-10-14T05:04:24.139Z,86.53
2022-10-14T05:05:26.002Z,86.16
2022-10-14T05:06:27.712Z,86.16
2022-10-14T05:07:29.335Z,85.83
2022-10-14T05:08:30.905Z,86.24
2022-10-14T05:09:33.426Z,86.70
2022-10-14T05:10:35.135Z,86.62
2022-10-14T05:11:36.698Z,86.35
2022-10-14T05:12:39.588Z,86.34
2022-10-14T05:13:40.925Z,85.99
2022-10-14T05:14:42.606Z,85.98
2022-10-14T05:15:44.232Z,85.61
2022-10-14T05:16:45.679Z,85.63
2022-10-14T05:17:47.904Z,85.96
2022-10-14T05:18:49.374Z,85.74
2022-10-14T05:19:50.792Z,85.71
2022-10-14T05:20:52.776Z,86.12
2022-10-14T05:21:54.261Z,85.83
2022-10-14T05:22:55.836Z,85.95
2022-10-14T05:23:57.323Z,85.64
2022-10-14T05:24:58.769Z,85.34
2022-10-14T05:26:00.566Z,85.68
2022-10-14T05:27:02.915Z,85.66
2022-10-14T05:28:04.853Z,85.61
2022-10-14T05:29:06.450Z,86.10
2022-10-14T05:30:08.884Z,85.73
2022-10-14T05:31:10.830Z,85.83
2022-10-14T05:32:12.251Z,86.12
2022-10-14T05:33:13.718Z,85.90
2022-10-14T05:34:15.295Z,85.81
2022-10-14T05:35:29.087Z,85.93
2022-10-14T05:36:38.451Z,86.05
2022-10-14T05:37:40.166Z,86.58
2022-10-14T05:38:41.638Z,86.88
2022-10-14T05:39:43.639Z,86.98
2022-10-14T05:40:52.070Z,87.54
2022-10-14T05:41:53.520Z,87.58
2022-10-14T05:42:54.956Z,87.79
2022-10-14T05:43:56.507Z,87.76
2022-10-14T05:44:58.067Z,87.57
2022-10-14T05:46:00.349Z,88.02
2022-10-14T05:47:01.831Z,88.15
2022-10-14T05:48:03.384Z,88.06
2022-10-14T05:49:06.078Z,88.13
2022-10-14T05:50:08.277Z,88.37
2022-10-14T05:51:09.958Z,87.97
2022-10-14T05:52:11.470Z,88.05
2022-10-14T05:53:13.038Z,87.95
2022-10-14T05:54:14.522Z,87.98
2022-10-14T05:55:16.423Z,87.57
2022-10-14T05:56:17.927Z,87.62
2022-10-14T05:57:19.362Z,87.41
2022-10-14T05:58:20.788Z,87.38
2022-10-14T05:59:22.391Z,87.09
2022-10-14T06:00:25.859Z,87.51
2022-10-14T06:01:27.605Z,87.73
2022-10-14T06:02:29.158Z,87.87
2022-10-14T06:03:30.866Z,87.60
2022-10-14T06:04:32.412Z,87.59
2022-10-14T06:05:37.221Z,87.55
2022-10-14T06:06:38.642Z,87.22
2022-10-14T06:07:40.074Z,86.97
2022-10-14T06:08:41.639Z,86.51
2022-10-14T06:09:43.607Z,86.53
2022-10-14T06:10:45.088Z,86.36
2022-10-14T06:11:46.630Z,86.43
2022-10-14T06:12:48.105Z,86.22
2022-10-14T06:13:50.092Z,86.12
2022-10-14T06:14:51.557Z,86.26
2022-10-14T06:15:53.022Z,85.93
2022-10-14T06:16:54.496Z,85.97
2022-10-14T06:17:56.145Z,86.00
2022-10-14T06:18:58.075Z,85.81
2022-10-14T06:19:59.635Z,85.80
2022-10-14T06:21:01.364Z,86.18
2022-10-14T06:22:03.637Z,85.98
2022-10-14T06:23:05.383Z,85.80
2022-10-14T06:24:07.169Z,85.83
2022-10-14T06:25:09.291Z,85.78
2022-10-14T06:26:10.816Z,85.78
2022-10-14T06:27:12.235Z,85.69
2022-10-14T06:28:13.988Z,86.07
2022-10-14T06:29:16.728Z,86.39
2022-10-14T06:30:18.167Z,86.27
2022-10-14T06:31:20.776Z,85.94
2022-10-14T06:32:22.499Z,85.78
2022-10-14T06:33:24.379Z,85.66
2022-10-14T06:34:25.848Z,85.96
2022-10-14T06:35:27.651Z,86.03
2022-10-14T06:36:29.078Z,86.03
2022-10-14T06:37:30.521Z,86.00
2022-10-14T06:38:32.228Z,85.70
2022-10-14T06:39:34.014Z,85.60
2022-10-14T06:40:36.888Z,85.61
2022-10-14T06:41:38.265Z,85.63
2022-10-14T06:42:39.925Z,85.75
2022-10-14T06:43:41.438Z,85.34
2022-10-14T06:44:43.228Z,85.41
2022-10-14T06:45:44.708Z,85.85
2022-10-14T06:46:46.459Z,86.16
2022-10-14T06:47:47.893Z,85.91
2022-10-14T06:48:50.474Z,86.12
2022-10-14T06:49:52.465Z,85.88
2022-10-14T06:50:53.917Z,86.02
2022-10-14T06:51:55.329Z,85.80
2022-10-14T06:52:56.756Z,86.14
2022-10-14T06:53:58.176Z,86.13
2022-10-14T06:55:00.021Z,86.22
2022-10-14T06:56:05.020Z,86.01
2022-10-14T06:57:06.664Z,85.90
2022-10-14T06:58:08.172Z,85.80
2022-10-14T06:59:09.607Z,85.73
2022-10-14T07:00:11.461Z,85.78
2022-10-14T07:01:12.926Z,85.72
2022-10-14T07:02:14.439Z,86.07
2022-10-14T07:03:15.893Z,85.82
2022-10-14T07:04:17.422Z,85.88
2022-10-14T07:05:18.881Z,85.62
2022-10-14T07:06:20.340Z,85.65
2022-10-14T07:07:21.883Z,86.05
2022-10-14T07:08:23.358Z,86.00
2022-10-14T07:09:25.118Z,86.41
2022-10-14T07:10:26.972Z,86.26
2022-10-14T07:11:28.466Z,86.02
2022-10-14T07:12:30.089Z,85.71
2022-10-14T07:13:34.488Z,85.42
2022-10-14T07:14:36.104Z,85.45
2022-10-14T07:15:38.670Z,85.71
2022-10-14T07:16:43.216Z,86.18
2022-10-14T07:17:44.679Z,85.89
2022-10-14T07:18:46.166Z,85.87
2022-10-14T07:19:47.618Z,86.09
2022-10-14T07:20:49.167Z,86.58
2022-10-14T07:21:50.677Z,85.74
2022-10-14T07:22:56.228Z,85.66
2022-10-14T07:23:57.670Z,85.82
2022-10-14T07:24:59.455Z,85.79
2022-10-14T07:26:01.292Z,85.49
2022-10-14T07:28:09.963Z,85.46
2022-10-14T07:29:11.631Z,85.35
2022-10-14T07:30:16.734Z,85.33
2022-10-14T07:32:20.832Z,85.51
2022-10-14T07:33:22.391Z,85.17
2022-10-14T07:34:23.925Z,85.27
2022-10-14T07:35:27.263Z,85.34
2022-10-14T07:36:28.867Z,85.48
2022-10-14T07:37:30.367Z,85.38
2022-10-14T07:38:32.538Z,85.23
2022-10-14T07:39:34.521Z,85.19
2022-10-14T07:40:36.053Z,85.43
2022-10-14T07:41:38.588Z,85.32
2022-10-14T07:42:40.120Z,85.15
2022-10-14T07:43:42.043Z,85.24
2022-10-14T07:44:43.586Z,85.22
2022-10-14T07:45:47.787Z,85.07
2022-10-14T07:46:49.231Z,85.09
2022-10-14T07:47:51.140Z,84.98
2022-10-14T07:48:57.165Z,85.36
2022-10-14T07:50:00.483Z,85.34
2022-10-14T07:51:02.755Z,84.87
2022-10-14T07:52:04.339Z,85.02
2022-10-14T07:53:05.776Z,84.88
2022-10-14T07:54:12.046Z,84.74
2022-10-14T07:55:13.927Z,84.67
2022-10-14T07:56:15.358Z,84.61
2022-10-14T07:57:16.849Z,83.92
2022-10-14T07:58:24.226Z,84.06
2022-10-14T07:59:26.443Z,84.45
2022-10-14T08:00:27.885Z,84.72
2022-10-14T08:01:29.405Z,84.68
2022-10-14T08:02:30.921Z,84.75
2022-10-14T08:03:32.567Z,84.61
2022-10-14T08:04:34.230Z,84.74
2022-10-14T08:05:38.525Z,84.44
2022-10-14T08:06:40.796Z,84.31
2022-10-14T08:07:42.270Z,84.60
2022-10-14T08:08:44.112Z,84.63
2022-10-14T08:09:45.608Z,84.46
2022-10-14T08:10:47.075Z,84.13
2022-10-14T08:11:49.081Z,84.06
2022-10-14T08:12:51.327Z,84.68
2022-10-14T08:13:53.665Z,85.13
2022-10-14T08:14:57.661Z,84.98
2022-10-14T08:15:59.257Z,84.71
2022-10-14T08:17:00.978Z,84.65
2022-10-14T08:18:02.497Z,84.38
2022-10-14T08:19:11.021Z,84.49
2022-10-14T08:20:15.326Z,84.66
2022-10-14T08:21:18.707Z,85.37
2022-10-14T08:22:20.438Z,85.43
2022-10-14T08:23:22.247Z,85.36
2022-10-14T08:24:23.795Z,85.58
2022-10-14T08:25:25.285Z,85.74
2022-10-14T08:26:29.869Z,86.05
2022-10-14T08:27:31.359Z,85.98
2022-10-14T08:28:32.869Z,85.82
2022-10-14T08:29:34.664Z,85.79
2022-10-14T08:30:36.223Z,85.53
2022-10-14T08:31:38.292Z,85.33
2022-10-14T08:32:39.740Z,84.94
2022-10-14T08:33:41.269Z,85.02
2022-10-14T08:34:42.810Z,84.40
2022-10-14T08:35:44.327Z,84.90
2022-10-14T08:36:45.754Z,84.86
2022-10-14T08:37:58.191Z,84.65
2022-10-14T08:38:59.722Z,84.18
2022-10-14T08:40:01.315Z,83.92
2022-10-14T08:41:16.308Z,83.67
2022-10-14T08:42:44.170Z,82.01
2022-10-14T08:43:50.690Z,82.24
2022-10-14T08:44:58.047Z,82.60
2022-10-14T08:46:30.752Z,82.05
2022-10-14T08:47:37.376Z,82.21
2022-10-14T08:48:39.328Z,82.69
2022-10-14T08:49:53.018Z,82.51
2022-10-14T08:51:03.196Z,82.30
2022-10-14T08:52:15.533Z,82.55
2022-10-14T08:53:22.608Z,82.78
2022-10-14T08:54:49.506Z,82.91
2022-10-14T08:55:54.764Z,82.22
2022-10-14T08:56:57.551Z,81.42
2022-10-14T08:58:10.420Z,81.33
2022-10-14T08:59:16.076Z,81.40
2022-10-14T09:00:19.405Z,81.42
2022-10-14T09:01:31.226Z,81.21
2022-10-14T09:02:48.041Z,80.97
2022-10-14T09:03:53.672Z,81.29
2022-10-14T09:04:56.681Z,81.36
2022-10-14T09:06:02.071Z,81.48
2022-10-14T09:07:04.924Z,81.11
2022-10-14T09:08:08.216Z,81.77
2022-10-14T09:09:40.586Z,81.63
2022-10-14T09:10:43.348Z,82.11
2022-10-14T09:11:51.430Z,81.82
2022-10-14T09:12:56.848Z,81.59
2022-10-14T09:14:00.968Z,81.29
2022-10-14T09:15:19.190Z,81.09
2022-10-14T09:16:24.205Z,80.13
2022-10-14T09:17:32.747Z,79.78
2022-10-14T09:18:43.219Z,80.45
2022-10-14T09:19:56.643Z,80.37
2022-10-14T09:20:58.980Z,80.13
2022-10-14T09:22:02.124Z,80.31
2022-10-14T09:23:18.332Z,81.24
2022-10-14T09:24:24.014Z,81.56
2022-10-14T09:25:25.520Z,81.61
2022-10-14T09:26:37.557Z,82.28
2022-10-14T09:27:39.048Z,81.90
2022-10-14T09:28:43.579Z,81.78
2022-10-14T09:29:48.817Z,81.58
2022-10-14T09:30:50.269Z,81.43
2022-10-14T09:31:53.335Z,81.14
2022-10-14T09:32:55.318Z,80.37
2022-10-14T09:33:56.888Z,80.32
2022-10-14T09:34:59.451Z,80.43
2022-10-14T09:36:01.080Z,80.72
2022-10-14T09:37:25.768Z,80.93
2022-10-14T09:38:27.903Z,81.56
2022-10-14T09:39:29.896Z,80.71
2022-10-14T09:40:37.180Z,81.15
2022-10-14T09:41:38.986Z,81.88
2022-10-14T09:43:11.331Z,81.71
2022-10-14T09:44:21.190Z,81.73
2022-10-14T09:45:27.859Z,81.82
2022-10-14T09:46:29.440Z,80.80
2022-10-14T09:47:31.573Z,80.76
2022-10-14T09:48:47.893Z,79.98
2022-10-14T09:49:49.829Z,78.95
2022-10-14T09:50:57.116Z,78.38
2022-10-14T09:51:58.686Z,78.11
2022-10-14T09:53:03.837Z,77.96
2022-10-14T09:54:05.517Z,78.12
2022-10-14T09:55:20.982Z,77.97
2022-10-14T09:56:40.692Z,77.56
2022-10-14T09:57:44.553Z,77.30
2022-10-14T09:58:55.359Z,76.66
2022-10-14T10:00:04.133Z,76.55
2022-10-14T10:01:06.146Z,76.56
2022-10-14T10:02:34.034Z,76.36
2022-10-14T10:03:35.668Z,76.14
2022-10-14T10:04:47.766Z,75.73
2022-10-14T10:06:00.098Z,75.06
2022-10-14T10:07:23.854Z,75.36
2022-10-14T10:08:26.679Z,75.92
2022-10-14T10:09:28.420Z,75.88
2022-10-14T10:10:30.863Z,75.68
2022-10-14T10:11:40.513Z,75.61
2022-10-14T10:12:46.870Z,75.11
2022-10-14T10:13:48.320Z,74.95
2022-10-14T10:14:58.268Z,75.10
2022-10-14T10:16:03.301Z,75.51
2022-10-14T10:17:07.877Z,75.46
2022-10-14T10:18:18.977Z,75.39
2022-10-14T10:19:33.173Z,74.42
2022-10-14T10:20:36.323Z,72.55
2022-10-14T10:21:37.784Z,72.06
2022-10-14T10:22:39.918Z,72.82
2022-10-14T10:23:55.850Z,72.21
2022-10-14T10:25:03.774Z,72.69
2022-10-14T10:26:26.030Z,72.23
2022-10-14T10:27:37.356Z,72.41
2022-10-14T10:28:46.162Z,72.43
2022-10-14T10:29:47.852Z,73.02
2022-10-14T10:31:18.491Z,73.28
2022-10-14T10:32:30.207Z,72.30
2022-10-14T10:33:43.465Z,71.96
2022-10-14T10:35:03.020Z,72.99
2022-10-14T10:36:23.285Z,72.11
2022-10-14T10:37:31.481Z,70.86
2022-10-14T10:38:51.553Z,71.36
2022-10-14T10:40:08.494Z,71.35
2022-10-14T10:41:48.413Z,70.54
2022-10-14T10:43:27.039Z,69.85
2022-10-14T10:44:48.919Z,70.72
2022-10-14T10:45:50.345Z,70.73
2022-10-14T10:47:15.415Z,69.68
2022-10-14T10:48:47.440Z,69.51
2022-10-14T10:50:08.277Z,69.38
2022-10-14T10:51:37.953Z,68.86
2022-10-14T10:53:04.392Z,68.75
2022-10-14T10:54:31.394Z,68.62
2022-10-14T10:56:00.332Z,68.58
2022-10-14T10:57:18.571Z,69.34
2022-10-14T10:58:20.051Z,69.18
2022-10-14T10:59:44.356Z,69.91
2022-10-14T11:01:01.971Z,70.54
2022-10-14T11:02:38.628Z,68.71
2022-10-14T11:03:49.439Z,68.00
2022-10-14T11:05:00.743Z,67.63
2022-10-14T11:06:39.873Z,67.98
2022-10-14T11:08:13.012Z,69.41
2022-10-14T11:09:49.472Z,69.56
2022-10-14T11:11:19.654Z,68.77
2022-10-14T11:12:26.709Z,68.64
2022-10-14T11:13:56.427Z,69.51
2022-10-14T11:17:04.006Z,68.61
2022-10-14T11:18:45.111Z,66.47
2022-10-14T11:19:59.256Z,65.60
2022-10-14T11:21:12.113Z,66.05
2022-10-14T11:22:35.765Z,65.35
2022-10-14T11:23:59.567Z,66.10
2022-10-14T11:25:33.248Z,67.38
2022-10-14T11:26:46.840Z,67.96
2022-10-14T11:28:06.959Z,68.18
2022-10-14T11:29:35.406Z,67.57
2022-10-14T11:31:04.010Z,67.01
2022-10-14T11:32:20.497Z,66.87
2022-10-14T11:33:44.744Z,67.13
2022-10-14T11:34:52.109Z,67.72
2022-10-14T11:36:25.044Z,66.82
2022-10-14T11:37:35.439Z,66.93
2022-10-14T11:39:15.384Z,67.39
2022-10-14T11:40:32.266Z,67.27
2022-10-14T11:42:01.421Z,68.15
2022-10-14T11:43:22.351Z,67.92
2022-10-14T11:44:42.674Z,67.55
2022-10-14T11:46:01.734Z,67.78
2022-10-14T11:47:12.259Z,67.29
2022-10-14T11:48:21.914Z,67.30
2022-10-14T11:49:36.709Z,67.05
2022-10-14T11:50:42.820Z,66.70
2022-10-14T11:51:52.875Z,67.65
2022-10-14T11:53:08.645Z,67.31
2022-10-14T11:54:18.727Z,68.14
2022-10-14T11:55:24.126Z,67.02
2022-10-14T11:56:29.741Z,66.53
2022-10-14T11:57:41.804Z,66.75
2022-10-14T11:58:45.793Z,66.35
2022-10-14T12:01:35.811Z,67.95
2022-10-14T12:02:48.538Z,68.54
2022-10-14T12:03:52.807Z,68.55
2022-10-14T12:05:19.347Z,68.02
2022-10-14T12:06:43.790Z,67.34
2022-10-14T12:07:54.363Z,67.86
2022-10-14T12:09:00.467Z,67.80
2022-10-14T12:10:15.570Z,67.45
2022-10-14T12:11:28.108Z,67.69
2022-10-14T12:12:35.497Z,67.17
2022-10-14T12:13:49.232Z,66.43
2022-10-14T12:15:16.189Z,66.42
2022-10-14T12:16:20.260Z,67.23
2022-10-14T12:17:30.231Z,67.18
2022-10-14T12:18:33.121Z,67.54
2022-10-14T12:19:37.068Z,67.45
2022-10-14T12:20:52.233Z,68.14
2022-10-14T12:22:12.745Z,67.46
2022-10-14T12:23:36.852Z,66.67
2022-10-14T12:24:43.412Z,66.73
2022-10-14T12:26:03.572Z,67.45
2022-10-14T12:27:10.350Z,67.57
2022-10-14T12:28:13.959Z,68.03
2022-10-14T12:29:19.592Z,67.78
2022-10-14T12:30:40.288Z,67.20
2022-10-14T12:31:42.084Z,67.46
2022-10-14T12:33:08.324Z,68.02
2022-10-14T12:34:15.837Z,66.47
2022-10-14T12:35:46.618Z,66.57
2022-10-14T12:36:50.733Z,67.17
2022-10-14T12:37:52.672Z,67.34
2022-10-14T12:39:19.246Z,67.75
2022-10-14T12:40:27.020Z,67.14
2022-10-14T12:41:40.307Z,67.88
2022-10-14T12:42:44.486Z,68.02
2022-10-14T12:44:03.081Z,67.27
2022-10-14T12:45:20.955Z,67.22
2022-10-14T12:46:22.511Z,67.45
2022-10-14T12:47:32.182Z,67.52
2022-10-14T12:48:35.755Z,67.31
2022-10-14T12:49:37.612Z,66.90
2022-10-14T12:50:42.606Z,66.76
2022-10-14T12:51:55.582Z,66.95
2022-10-14T12:53:02.973Z,66.81
2022-10-14T12:54:15.078Z,66.70
2022-10-14T12:55:19.934Z,67.14
2022-10-14T12:56:35.146Z,67.50
2022-10-14T12:57:40.224Z,67.25
2022-10-14T12:59:02.326Z,67.54
2022-10-14T13:00:23.806Z,67.71
2022-10-14T13:01:25.418Z,67.74
2022-10-14T13:02:36.481Z,67.67
2022-10-14T13:03:44.872Z,67.49
2022-10-14T13:04:48.879Z,67.57
2022-10-14T13:05:51.052Z,68.20
2022-10-14T13:07:38.856Z,67.33
2022-10-14T13:08:38.802Z,68.25
2022-10-14T13:09:40.450Z,68.82
2022-10-14T13:10:50.970Z,68.68
2022-10-14T13:11:52.343Z,68.29
2022-10-14T13:12:54.195Z,68.87
2022-10-14T13:14:01.072Z,68.77
2022-10-14T13:15:24.464Z,68.85
2022-10-14T13:16:26.185Z,69.16
2022-10-14T13:17:46.501Z,69.61
2022-10-14T13:18:59.615Z,69.42
2022-10-14T13:20:01.121Z,70.07
2022-10-14T13:21:05.110Z,70.18
2022-10-14T13:22:35.500Z,69.84
2022-10-14T13:23:44.730Z,69.35
2022-10-14T13:24:46.246Z,69.64
2022-10-14T13:25:51.709Z,69.14
2022-10-14T13:26:53.431Z,68.82
2022-10-14T13:28:26.904Z,68.84
2022-10-14T13:29:30.236Z,69.26
2022-10-14T13:30:37.278Z,69.18
2022-10-14T13:32:04.185Z,69.08
2022-10-14T13:33:22.517Z,69.00
2022-10-14T13:34:44.399Z,69.79
2022-10-14T13:35:51.420Z,69.71
2022-10-14T13:37:33.798Z,69.71
2022-10-14T13:38:35.553Z,70.29
2022-10-14T13:39:38.611Z,70.77
2022-10-14T13:40:45.464Z,70.55
2022-10-14T13:41:48.040Z,70.24
2022-10-14T13:42:56.319Z,70.12
2022-10-14T13:43:59.617Z,70.22
2022-10-14T13:45:13.814Z,70.42
2022-10-14T13:46:27.433Z,69.96
2022-10-14T13:47:28.938Z,69.99
2022-10-14T13:48:39.223Z,69.84
2022-10-14T13:49:41.771Z,69.75
2022-10-14T13:50:44.329Z,69.59
2022-10-14T13:51:51.756Z,68.05
2022-10-14T13:52:58.759Z,67.90
2022-10-14T13:54:15.366Z,67.80
2022-10-14T13:55:20.115Z,67.33
2022-10-14T13:56:27.883Z,67.43
2022-10-14T13:57:48.209Z,67.22
2022-10-14T13:58:51.058Z,66.79
2022-10-14T14:01:14.215Z,67.01
2022-10-14T14:02:21.388Z,67.39
2022-10-14T14:03:23.024Z,68.00
2022-10-14T14:04:28.864Z,67.09
2022-10-14T14:05:35.124Z,66.93
2022-10-14T14:07:03.412Z,66.57
2022-10-14T14:08:42.429Z,66.55
2022-10-14T14:09:35.106Z,66.93
2022-10-14T14:10:51.448Z,67.40
2022-10-14T14:12:03.354Z,66.86
2022-10-14T14:13:05.768Z,67.19
2022-10-14T14:14:16.338Z,67.34
2022-10-14T14:15:26.501Z,67.14
2022-10-14T14:16:35.201Z,67.58
2022-10-14T14:17:37.117Z,66.24
2022-10-14T14:18:56.266Z,66.11
2022-10-14T14:20:02.112Z,66.40
2022-10-14T14:21:04.135Z,66.53
2022-10-14T14:22:18.801Z,65.94
2022-10-14T14:23:20.555Z,67.12
2022-10-14T14:24:25.673Z,67.45
2022-10-14T14:25:43.295Z,67.03
2022-10-14T14:26:55.809Z,67.31
2022-10-14T14:28:01.134Z,67.73